Time;durP1;ratioP1;P1;durP2;ratioP2;P2;SDS_P1;SDS_P2;PMS_P1;PMS_P2;Temp;Humidity;BMP_temperature;BMP_pressure;BME280_temperature;BME280_humidity;BME280_pressure;Samples;Min_cycle;Max_cycle;Signal;HPM_P1;HPM_P2
2021/12/22 00:01:38;;;;;;;31.20;14.30;;;-4.00;99.90;;;;;;5002927;28;20044;-91
2021/12/22 00:04:04;;;;;;;25.98;12.25;;;-4.00;99.90;;;;;;4998762;28;20120;-91
2021/12/22 00:06:33;;;;;;;23.48;12.77;;;-4.00;99.90;;;;;;5009042;28;20132;-92
2021/12/22 00:08:59;;;;;;;24.23;12.43;;;-4.10;99.90;;;;;;5001007;28;20073;-91
2021/12/22 00:11:25;;;;;;;23.08;13.07;;;-4.10;99.90;;;;;;5016116;28;20490;-91
2021/12/22 00:13:51;;;;;;;21.52;11.93;;;-4.10;99.90;;;;;;4986450;28;20513;-91
2021/12/22 00:16:17;;;;;;;26.98;13.32;;;-4.20;99.90;;;;;;4998005;28;20041;-91
2021/12/22 00:18:43;;;;;;;23.73;12.27;;;-4.20;99.90;;;;;;5018267;28;20569;-91
2021/12/22 00:21:09;;;;;;;24.35;13.07;;;-4.20;99.90;;;;;;5014258;28;20040;-91
2021/12/22 00:23:36;;;;;;;24.63;13.82;;;-4.30;99.90;;;;;;5008220;28;20065;-91
2021/12/22 00:26:02;;;;;;;25.25;13.27;;;-4.30;99.90;;;;;;4988828;28;20073;-91
2021/12/22 00:28:27;;;;;;;29.38;13.43;;;-4.40;99.90;;;;;;5010923;28;20464;-91
2021/12/22 00:30:53;;;;;;;28.02;13.45;;;-4.40;99.90;;;;;;4977256;28;20037;-92
2021/12/22 00:33:20;;;;;;;24.40;13.43;;;-4.40;99.90;;;;;;5014965;28;20786;-91
2021/12/22 00:35:45;;;;;;;27.83;13.55;;;-4.40;99.90;;;;;;5002658;28;20041;-92
2021/12/22 00:38:15;;;;;;;27.17;13.45;;;-4.50;99.90;;;;;;4985855;28;20064;-91
2021/12/22 00:40:44;;;;;;;29.50;13.73;;;-4.50;99.90;;;;;;5003408;28;20050;-92
2021/12/22 00:43:10;;;;;;;26.35;13.40;;;-4.50;99.90;;;;;;4994020;28;20072;-91
2021/12/22 00:45:37;;;;;;;26.77;13.57;;;-4.50;99.90;;;;;;4997648;28;20037;-91
2021/12/22 00:48:05;;;;;;;29.67;14.88;;;-4.60;99.90;;;;;;5000059;28;20033;-92
2021/12/22 00:50:32;;;;;;;24.25;13.23;;;-4.60;99.90;;;;;;5007279;28;20037;-92
2021/12/22 00:52:59;;;;;;;31.83;14.82;;;-3.90;99.90;;;;;;4998494;28;20041;-91
2021/12/22 00:55:25;;;;;;;28.88;14.07;;;-4.70;99.90;;;;;;5006528;28;20124;-92
2021/12/22 00:57:51;;;;;;;24.67;13.93;;;-3.40;99.90;;;;;;5000294;28;20112;-91
2021/12/22 01:00:20;;;;;;;25.27;12.73;;;-4.70;99.90;;;;;;4990468;28;20067;-91
2021/12/22 01:02:46;;;;;;;22.63;12.43;;;-4.70;99.90;;;;;;4998730;28;20112;-91
2021/12/22 01:05:14;;;;;;;27.70;13.77;;;-4.70;99.90;;;;;;5005131;28;20518;-91
2021/12/22 01:07:42;;;;;;;24.65;13.85;;;-4.80;99.90;;;;;;5020148;28;20068;-91
2021/12/22 01:10:10;;;;;;;26.73;14.18;;;-4.80;99.90;;;;;;5008028;28;20085;-91
2021/12/22 01:12:36;;;;;;;29.90;14.82;;;-4.80;99.90;;;;;;5009635;28;20074;-91
2021/12/22 01:15:04;;;;;;;26.75;14.00;;;-4.80;99.90;;;;;;5003918;28;20498;-91
2021/12/22 01:17:37;;;;;;;27.15;13.65;;;-4.80;99.90;;;;;;5005536;28;20044;-90
2021/12/22 01:20:12;;;;;;;33.47;14.95;;;-4.90;99.90;;;;;;4997999;28;20049;-91
2021/12/22 01:22:48;;;;;;;28.83;15.98;;;-4.90;99.90;;;;;;5002966;28;20056;-91
2021/12/22 01:25:21;;;;;;;27.10;15.23;;;-5.00;99.90;;;;;;4993309;28;20037;-91
2021/12/22 01:27:47;;;;;;;28.08;14.90;;;-5.00;99.90;;;;;;4984284;28;20040;-91
2021/12/22 01:30:20;;;;;;;26.88;14.15;;;-5.00;99.90;;;;;;5017620;28;20034;-90
2021/12/22 01:32:48;;;;;;;27.02;13.52;;;-5.10;99.90;;;;;;5005270;28;20033;-90
2021/12/22 01:35:17;;;;;;;26.67;13.68;;;-5.10;99.90;;;;;;5018394;28;20037;-90
2021/12/22 01:37:43;;;;;;;27.00;14.50;;;-5.10;99.90;;;;;;5005964;28;20116;-91
2021/12/22 01:40:11;;;;;;;25.20;14.13;;;-5.10;99.90;;;;;;4995165;28;20573;-90
2021/12/22 01:42:38;;;;;;;26.92;13.57;;;-5.10;99.90;;;;;;4992517;28;20057;-91
2021/12/22 01:45:36;;;;;;;23.98;13.07;;;-5.10;99.90;;;;;;4996893;28;20036;-91
2021/12/22 01:50:50;;;;;;;23.67;14.75;;;-5.20;99.90;;;;;;5002808;28;20088;-90
2021/12/22 01:53:19;;;;;;;30.02;14.45;;;-5.20;99.90;;;;;;5022984;28;20044;-91
2021/12/22 01:55:46;;;;;;;25.15;14.00;;;-5.20;99.90;;;;;;5006236;28;20075;-91
2021/12/22 01:58:16;;;;;;;27.80;14.73;;;-5.20;99.90;;;;;;5007670;28;20053;-91
2021/12/22 02:00:42;;;;;;;25.73;13.65;;;-5.20;99.90;;;;;;5025104;28;20033;-91
2021/12/22 02:03:07;;;;;;;30.88;15.70;;;-5.30;99.90;;;;;;4980658;28;20041;-90
2021/12/22 02:05:33;;;;;;;32.05;15.40;;;-5.30;99.90;;;;;;4991217;28;20032;-90
2021/12/22 02:08:01;;;;;;;30.65;14.73;;;-3.90;99.90;;;;;;5005542;28;20037;-91
2021/12/22 02:10:38;;;;;;;27.75;14.63;;;-5.30;99.90;;;;;;4994870;28;20130;-91
2021/12/22 02:13:05;;;;;;;25.42;14.23;;;-5.40;99.90;;;;;;5010690;28;20037;-92
2021/12/22 02:15:34;;;;;;;24.05;13.25;;;-5.40;99.90;;;;;;4996964;28;20163;-91
2021/12/22 02:18:03;;;;;;;27.35;14.32;;;-5.40;99.90;;;;;;5014967;28;20041;-91
2021/12/22 02:20:29;;;;;;;29.67;14.48;;;-5.40;99.90;;;;;;5014840;28;20041;-90
2021/12/22 02:22:56;;;;;;;27.23;14.13;;;-5.40;99.90;;;;;;4998528;28;20513;-91
2021/12/22 02:25:31;;;;;;;32.95;15.65;;;-5.50;99.90;;;;;;5014694;28;20116;-90
2021/12/22 02:27:57;;;;;;;26.35;14.13;;;-5.40;99.90;;;;;;4999505;28;20029;-91
2021/12/22 02:30:26;;;;;;;27.23;14.10;;;-4.80;99.90;;;;;;5019073;28;20042;-91
2021/12/22 02:35:40;;;;;;;31.10;15.00;;;-5.50;99.90;;;;;;4998079;28;20148;-91
2021/12/22 02:38:13;;;;;;;32.88;16.23;;;-5.50;99.90;;;;;;5030082;28;20441;-91
2021/12/22 02:40:38;;;;;;;29.27;14.77;;;-5.50;99.90;;;;;;5014548;28;20044;-91
2021/12/22 02:43:05;;;;;;;34.75;17.10;;;-5.50;99.90;;;;;;5010956;28;20051;-91
2021/12/22 02:45:34;;;;;;;28.55;16.42;;;-5.50;99.90;;;;;;5014937;28;20131;-91
2021/12/22 02:48:00;;;;;;;34.47;16.33;;;-5.50;99.90;;;;;;5012600;28;20087;-91
2021/12/22 02:50:26;;;;;;;32.80;15.20;;;-5.50;99.90;;;;;;5028363;28;20090;-91
2021/12/22 02:55:28;;;;;;;35.47;16.65;;;-5.50;99.90;;;;;;5014770;28;20041;-92
2021/12/22 02:57:57;;;;;;;29.50;15.27;;;-5.50;99.90;;;;;;5010550;28;20091;-92
2021/12/22 03:03:14;;;;;;;37.65;16.83;;;-5.50;99.90;;;;;;5014676;28;20502;-91
2021/12/22 03:05:41;;;;;;;37.90;16.83;;;-5.50;99.90;;;;;;4999436;28;20041;-90
2021/12/22 03:08:07;;;;;;;37.40;17.10;;;-5.60;99.90;;;;;;4979301;28;20084;-91
2021/12/22 03:10:33;;;;;;;34.97;15.45;;;-5.60;99.90;;;;;;5012466;28;20053;-91
2021/12/22 03:13:03;;;;;;;35.90;16.50;;;-5.60;99.90;;;;;;4997770;28;20064;-91
2021/12/22 03:15:29;;;;;;;35.65;15.80;;;-5.70;99.90;;;;;;5013671;28;20067;-91
2021/12/22 03:17:55;;;;;;;32.25;16.08;;;-5.70;99.90;;;;;;5030943;28;20069;-91
2021/12/22 03:20:21;;;;;;;35.92;16.35;;;-5.70;99.90;;;;;;4997100;28;20025;-91
2021/12/22 03:22:47;;;;;;;32.05;16.13;;;-5.70;99.90;;;;;;5033558;28;20110;-91
2021/12/22 03:25:16;;;;;;;33.03;15.55;;;-5.80;99.90;;;;;;5001068;28;20556;-90
2021/12/22 03:27:49;;;;;;;31.52;15.95;;;-5.80;99.90;;;;;;5017856;28;20116;-91
2021/12/22 03:30:16;;;;;;;;;;;-5.80;99.90;;;;;;5018133;28;20044;-91
2021/12/22 03:32:42;;;;;;;35.08;16.83;;;-5.80;99.90;;;;;;5020539;28;19916;-91
2021/12/22 03:35:14;;;;;;;37.58;16.38;;;-5.80;99.90;;;;;;5001542;28;20047;-91
2021/12/22 03:37:40;;;;;;;37.38;17.55;;;-5.80;99.90;;;;;;4999873;28;20048;-91
2021/12/22 03:40:06;;;;;;;33.75;15.70;;;-5.80;99.90;;;;;;5001488;28;20059;-91
2021/12/22 03:42:32;;;;;;;35.20;17.30;;;-5.80;99.90;;;;;;5015214;28;20081;-90
2021/12/22 03:44:57;;;;;;;32.95;16.40;;;-5.80;99.90;;;;;;5004017;28;20444;-91
2021/12/22 03:47:23;;;;;;;36.15;16.98;;;-5.80;99.90;;;;;;5001055;28;20037;-91
2021/12/22 03:49:49;;;;;;;33.55;16.58;;;-5.80;99.90;;;;;;4983751;28;20041;-90
2021/12/22 03:52:15;;;;;;;36.42;16.15;;;-5.90;99.90;;;;;;4982469;28;20040;-92
2021/12/22 03:54:41;;;;;;;42.53;17.58;;;-5.90;99.90;;;;;;4980673;28;20069;-91
2021/12/22 03:57:07;;;;;;;38.65;16.42;;;-5.90;99.90;;;;;;5012342;28;20075;-91
2021/12/22 03:59:32;;;;;;;35.83;16.85;;;-6.00;99.90;;;;;;4983667;28;20063;-91
2021/12/22 04:01:58;;;;;;;33.75;16.83;;;-6.00;99.90;;;;;;4998970;28;20385;-91
2021/12/22 04:04:24;;;;;;;35.50;17.13;;;-6.00;99.90;;;;;;4995214;28;20036;-91
2021/12/22 04:06:51;;;;;;;44.85;17.30;;;-6.00;99.90;;;;;;5000673;28;20094;-91
2021/12/22 04:09:18;;;;;;;38.80;16.75;;;-6.10;99.90;;;;;;5017183;28;20057;-91
2021/12/22 04:11:45;;;;;;;38.90;16.48;;;-6.10;99.90;;;;;;4983125;28;20038;-90
2021/12/22 04:14:11;;;;;;;35.42;17.08;;;-6.10;99.90;;;;;;5001026;28;20071;-91
2021/12/22 04:16:37;;;;;;;33.03;16.42;;;-6.10;99.90;;;;;;5000275;28;20044;-91
2021/12/22 04:19:03;;;;;;;37.83;17.25;;;-4.80;99.90;;;;;;5015196;28;20144;-92
2021/12/22 04:21:30;;;;;;;35.17;16.58;;;-6.10;99.90;;;;;;5000617;28;20064;-91
2021/12/22 04:23:56;;;;;;;34.20;16.63;;;-6.20;99.90;;;;;;5007869;28;20128;-90
2021/12/22 04:26:23;;;;;;;34.90;16.30;;;-6.10;99.90;;;;;;5000584;28;20037;-91
2021/12/22 04:28:49;;;;;;;34.33;16.33;;;-6.20;99.90;;;;;;5015539;28;20478;-92
2021/12/22 04:31:15;;;;;;;33.40;16.65;;;-6.20;99.90;;;;;;5001154;28;20040;-91
2021/12/22 04:33:41;;;;;;;40.00;17.65;;;-6.20;99.90;;;;;;4999133;28;20077;-91
2021/12/22 04:36:06;;;;;;;33.85;17.20;;;-6.20;99.90;;;;;;5016728;28;20097;-90
2021/12/22 04:38:32;;;;;;;32.75;15.57;;;-6.20;99.90;;;;;;4983748;28;20666;-91
2021/12/22 04:40:58;;;;;;;39.05;17.20;;;-6.20;99.90;;;;;;5014287;28;20121;-91
2021/12/22 04:43:24;;;;;;;35.22;16.63;;;-6.20;99.90;;;;;;5033590;28;20032;-92
2021/12/22 04:45:49;;;;;;;33.80;16.50;;;-6.20;99.90;;;;;;5000178;28;20489;-92
2021/12/22 04:48:15;;;;;;;30.88;15.85;;;-6.20;99.90;;;;;;5000080;28;20037;-92
2021/12/22 04:50:41;;;;;;;32.83;15.13;;;-6.20;99.90;;;;;;5006707;28;20045;-91
2021/12/22 04:53:49;;;;;;;34.85;16.15;;;-6.20;99.90;;;;;;4983606;28;20048;-90
2021/12/22 04:55:58;;;;;;;35.15;15.93;;;-6.30;99.90;;;;;;5031698;28;20045;-91
2021/12/22 04:58:24;;;;;;;40.15;17.92;;;-6.30;99.90;;;;;;5016474;28;20036;-92
2021/12/22 05:00:50;;;;;;;35.15;15.88;;;-6.30;99.90;;;;;;4984446;28;20051;-92
2021/12/22 05:03:16;;;;;;;32.22;15.48;;;-6.30;99.90;;;;;;4998370;28;20049;-92
2021/12/22 05:05:41;;;;;;;34.30;15.75;;;-6.30;99.90;;;;;;5028143;28;20037;-92
2021/12/22 05:08:07;;;;;;;31.88;16.05;;;-6.30;99.90;;;;;;4984096;28;20055;-91
2021/12/22 05:10:33;;;;;;;31.17;14.77;;;-6.30;99.90;;;;;;5000087;28;20571;-92
2021/12/22 05:12:58;;;;;;;36.90;16.15;;;-6.30;99.90;;;;;;5016113;28;20033;-92
2021/12/22 05:15:28;;;;;;;24.90;13.88;;;-6.30;99.90;;;;;;4999370;28;20502;-91
2021/12/22 05:20:19;;;;;;;31.02;15.07;;;-6.30;99.90;;;;;;5033004;28;20041;-92
2021/12/22 05:22:45;;;;;;;29.33;14.40;;;-6.30;99.90;;;;;;5000715;28;20040;-91
2021/12/22 05:25:12;;;;;;;30.08;14.10;;;-6.30;99.90;;;;;;5000577;28;20049;-92
2021/12/22 05:27:38;;;;;;;31.42;13.95;;;-6.40;99.90;;;;;;4999795;28;20068;-92
2021/12/22 05:30:08;;;;;;;30.33;16.17;;;-6.30;99.90;;;;;;4984162;28;20517;-92
2021/12/22 05:32:35;;;;;;;31.15;15.82;;;-6.30;99.90;;;;;;5030027;28;20037;-92
2021/12/22 05:35:03;;;;;;;30.13;13.93;;;-6.30;99.90;;;;;;5016731;28;20079;-92
2021/12/22 05:37:29;;;;;;;27.55;14.52;;;-6.30;99.90;;;;;;5021772;28;20041;-93
2021/12/22 05:39:58;;;;;;;30.23;14.45;;;-6.30;99.90;;;;;;5016611;28;20036;-91
2021/12/22 05:42:27;;;;;;;30.30;15.60;;;-6.30;99.90;;;;;;5000570;28;20033;-91
2021/12/22 05:44:53;;;;;;;33.00;15.38;;;-6.30;99.90;;;;;;4999376;28;20428;-93
2021/12/22 05:47:19;;;;;;;33.20;15.38;;;-6.30;99.90;;;;;;5033147;28;20091;-92
2021/12/22 05:49:45;;;;;;;26.85;13.73;;;-6.30;99.90;;;;;;5032969;28;20058;-91
2021/12/22 05:52:11;;;;;;;31.20;14.80;;;-6.20;99.90;;;;;;5008566;28;20037;-93
2021/12/22 05:54:37;;;;;;;26.58;14.30;;;-6.20;99.90;;;;;;4999034;28;20040;-92
2021/12/22 05:57:04;;;;;;;30.95;14.85;;;-6.20;99.90;;;;;;5022644;28;20037;-93
2021/12/22 05:59:30;;;;;;;28.35;14.73;;;-6.20;99.90;;;;;;5016935;28;20041;-92
2021/12/22 06:01:56;;;;;;;32.13;14.70;;;-6.20;99.90;;;;;;5033270;28;20102;-92
2021/12/22 06:04:21;;;;;;;30.20;14.50;;;-6.20;99.90;;;;;;4981915;28;20037;-92
2021/12/22 06:06:47;;;;;;;33.75;15.45;;;-6.20;99.90;;;;;;4983724;28;20040;-92
2021/12/22 06:09:13;;;;;;;37.63;15.60;;;-4.90;99.90;;;;;;4999248;28;20183;-92
2021/12/22 06:11:39;;;;;;;34.30;15.27;;;-6.20;99.90;;;;;;5000287;28;20043;-93
2021/12/22 06:14:04;;;;;;;31.73;15.23;;;-6.10;99.90;;;;;;5000171;28;20120;-92
2021/12/22 06:16:30;;;;;;;35.08;15.20;;;-6.10;99.90;;;;;;4983587;28;20045;-93
2021/12/22 06:19:03;;;;;;;29.52;14.05;;;-5.00;99.90;;;;;;4980311;28;20033;-92
2021/12/22 06:21:30;;;;;;;33.13;15.52;;;-6.10;99.90;;;;;;5033024;28;20106;-92
2021/12/22 06:23:56;;;;;;;34.17;14.48;;;-6.00;99.90;;;;;;5015178;28;20035;-91
2021/12/22 06:26:22;;;;;;;30.63;14.50;;;-6.00;99.90;;;;;;5017082;28;20451;-90
2021/12/22 06:28:49;;;;;;;30.60;14.45;;;-6.00;99.90;;;;;;5014448;28;20401;-91
2021/12/22 06:31:14;;;;;;;26.05;13.70;;;-6.00;99.90;;;;;;4982124;28;20041;-92
2021/12/22 06:33:40;;;;;;;29.88;14.90;;;-6.00;99.90;;;;;;4979895;28;20041;-93
2021/12/22 06:36:06;;;;;;;32.42;15.38;;;-6.00;99.90;;;;;;4997952;28;20037;-92
2021/12/22 06:38:32;;;;;;;35.95;14.55;;;-6.00;99.90;;;;;;4995880;28;20120;-92
2021/12/22 06:40:59;;;;;;;30.92;14.95;;;-6.00;99.90;;;;;;5030877;28;20029;-92
2021/12/22 06:43:25;;;;;;;30.13;13.95;;;-6.10;99.90;;;;;;5030298;28;20037;-92
2021/12/22 06:45:51;;;;;;;25.85;13.77;;;-6.10;99.90;;;;;;5031792;28;20493;-93
2021/12/22 06:48:17;;;;;;;29.00;13.98;;;-6.10;99.90;;;;;;4998612;28;20057;-92
2021/12/22 06:50:43;;;;;;;29.42;14.43;;;-6.00;99.90;;;;;;5014641;28;20033;-92
2021/12/22 06:53:08;;;;;;;30.35;13.65;;;-6.00;99.90;;;;;;4981633;28;20068;-93
2021/12/22 06:55:34;;;;;;;25.63;13.75;;;-6.00;99.90;;;;;;5011772;28;20037;-93
2021/12/22 06:58:01;;;;;;;32.65;15.63;;;-6.00;99.90;;;;;;4982863;28;20060;-93
2021/12/22 07:00:27;;;;;;;26.80;14.10;;;-4.90;99.90;;;;;;5001795;28;20064;-93
2021/12/22 07:02:53;;;;;;;29.27;14.75;;;-6.00;99.90;;;;;;4985983;28;20044;-93
2021/12/22 07:05:20;;;;;;;34.33;14.25;;;-6.00;99.90;;;;;;5010828;28;20088;-93
2021/12/22 07:07:46;;;;;;;25.75;13.57;;;-6.00;99.90;;;;;;5015225;28;20533;-92
2021/12/22 07:10:12;;;;;;;32.08;15.77;;;-6.00;99.90;;;;;;5016837;28;20060;-94
2021/12/22 07:12:42;;;;;;;26.98;13.95;;;-6.00;99.90;;;;;;5001597;28;20532;-93
2021/12/22 07:15:13;;;;;;;35.47;15.48;;;-5.90;99.90;;;;;;5017751;28;20041;-93
2021/12/22 07:17:40;;;;;;;27.77;14.07;;;-6.40;99.90;;;;;;5018154;28;20043;-92
2021/12/22 07:20:06;;;;;;;34.42;15.02;;;-5.90;99.90;;;;;;4986085;28;20029;-93
2021/12/22 07:22:34;;;;;;;29.63;13.75;;;-5.90;99.90;;;;;;5000974;28;20067;-93
2021/12/22 07:24:59;;;;;;;30.88;14.30;;;-5.90;99.90;;;;;;5000092;28;20044;-93
2021/12/22 07:27:25;;;;;;;36.45;15.27;;;-5.90;99.90;;;;;;4985368;28;20036;-93
2021/12/22 07:29:51;;;;;;;31.67;15.23;;;-5.90;99.90;;;;;;5028617;28;20111;-93
2021/12/22 07:32:17;;;;;;;36.95;14.13;;;-5.90;99.90;;;;;;5014845;28;20049;-92
2021/12/22 07:34:50;;;;;;;29.05;14.80;;;-5.90;99.90;;;;;;5017080;28;20442;-93
2021/12/22 07:37:23;;;;;;;30.77;15.32;;;-5.90;99.90;;;;;;5029238;28;20482;-93
2021/12/22 07:39:48;;;;;;;30.88;16.10;;;-5.90;99.90;;;;;;5015282;28;20111;-94
2021/12/22 07:42:14;;;;;;;33.10;14.52;;;-5.80;99.90;;;;;;5032826;28;20056;-93
2021/12/22 07:44:40;;;;;;;33.97;16.25;;;-5.80;99.90;;;;;;5034316;28;20079;-94
2021/12/22 07:47:06;;;;;;;34.58;15.77;;;-5.70;99.90;;;;;;5017363;28;20052;-93
2021/12/22 07:49:32;;;;;;;38.15;17.02;;;-5.70;99.90;;;;;;4984607;28;20043;-93
2021/12/22 07:51:58;;;;;;;31.92;16.40;;;-5.70;99.90;;;;;;5001968;28;20047;-93
2021/12/22 07:54:24;;;;;;;40.92;16.00;;;-5.70;99.90;;;;;;5007153;28;20034;-93
2021/12/22 07:56:49;;;;;;;36.83;15.52;;;-5.70;99.90;;;;;;4979039;28;20411;-93
2021/12/22 07:59:15;;;;;;;29.98;15.50;;;-5.70;99.90;;;;;;5002753;28;20036;-93
2021/12/22 08:01:41;;;;;;;28.13;14.77;;;-5.70;99.90;;;;;;5016469;28;20119;-93
2021/12/22 08:04:06;;;;;;;29.45;15.23;;;-5.60;99.90;;;;;;5035074;28;20041;-93
2021/12/22 08:06:32;;;;;;;28.58;15.63;;;-5.60;99.90;;;;;;4999549;28;20123;-92
2021/12/22 08:08:58;;;;;;;27.88;15.00;;;-5.60;99.90;;;;;;4989157;28;20034;-93
2021/12/22 08:11:24;;;;;;;29.67;14.23;;;-5.60;99.90;;;;;;5010872;28;20053;-92
2021/12/22 08:13:49;;;;;;;34.83;15.55;;;-5.60;99.90;;;;;;5012476;28;20208;-90
2021/12/22 08:16:15;;;;;;;30.73;15.27;;;-5.50;99.90;;;;;;5009877;28;20076;-90
2021/12/22 08:18:41;;;;;;;30.42;14.77;;;-5.40;99.90;;;;;;4991146;28;20037;-91
2021/12/22 08:21:07;;;;;;;33.35;15.85;;;-5.40;99.90;;;;;;4997724;28;20479;-92
2021/12/22 08:23:32;;;;;;;31.83;15.25;;;-5.30;99.90;;;;;;4971556;28;20043;-93
2021/12/22 08:25:58;;;;;;;33.08;16.25;;;-5.20;99.90;;;;;;4983236;28;20098;-92
2021/12/22 08:28:24;;;;;;;30.02;15.05;;;-5.10;99.90;;;;;;4984818;28;20041;-93
2021/12/22 08:30:50;;;;;;;29.40;14.57;;;-5.00;99.90;;;;;;4983263;28;20124;-92
2021/12/22 08:33:25;;;;;;;30.45;15.15;;;-3.50;99.90;;;;;;4964820;28;20138;-93
2021/12/22 08:38:52;;;;;;;31.15;16.00;;;-4.80;99.90;;;;;;5014058;28;20049;-95
2021/12/22 08:41:31;;;;;;;33.03;16.88;;;-4.70;99.90;;;;;;5000642;28;20731;-91
2021/12/22 08:44:01;;;;;;;31.25;15.10;;;-4.60;99.90;;;;;;5002154;28;20112;-95
2021/12/22 08:46:27;;;;;;;31.30;15.27;;;-4.50;99.90;;;;;;5002194;28;20099;-94
2021/12/22 08:48:53;;;;;;;30.88;14.57;;;-4.40;99.90;;;;;;5006924;28;20045;-92
2021/12/22 08:51:21;;;;;;;33.72;15.98;;;-4.40;99.90;;;;;;5007385;28;20040;-96
2021/12/22 08:53:47;;;;;;;30.75;16.73;;;-4.30;99.90;;;;;;4971790;28;20124;-94
2021/12/22 08:56:13;;;;;;;32.03;15.25;;;-4.20;99.90;;;;;;4974536;28;20131;-95
2021/12/22 08:58:38;;;;;;;27.73;14.95;;;-4.10;99.90;;;;;;5004609;28;20089;-96
2021/12/22 09:01:04;;;;;;;33.30;16.17;;;-4.00;99.90;;;;;;4986842;28;20064;-96
2021/12/22 09:03:30;;;;;;;28.70;14.70;;;-3.90;99.90;;;;;;5006910;28;20037;-96
2021/12/22 09:05:56;;;;;;;28.30;14.60;;;-3.80;99.90;;;;;;4990217;28;20043;-95
2021/12/22 09:08:22;;;;;;;25.17;13.60;;;-2.80;99.90;;;;;;4971250;28;20040;-95
2021/12/22 09:10:47;;;;;;;33.42;15.75;;;-2.80;99.90;;;;;;5003464;28;20061;-94
2021/12/22 09:13:15;;;;;;;29.60;14.60;;;-2.90;99.90;;;;;;4983353;28;20052;-95
2021/12/22 09:15:41;;;;;;;30.23;14.90;;;-1.50;99.90;;;;;;4986969;28;20467;-95
2021/12/22 09:18:06;;;;;;;28.35;14.70;;;-2.90;99.90;;;;;;4983229;28;20120;-94
2021/12/22 09:20:32;;;;;;;32.22;16.55;;;-2.80;99.90;;;;;;4981069;28;20501;-93
2021/12/22 09:22:58;;;;;;;30.25;14.82;;;-2.70;99.90;;;;;;4985506;28;20120;-95
2021/12/22 09:25:24;;;;;;;31.42;14.23;;;-2.60;99.90;;;;;;4972936;28;20087;-94
2021/12/22 09:27:49;;;;;;;27.48;14.15;;;-2.60;99.90;;;;;;4967019;28;20041;-96
2021/12/22 09:30:15;;;;;;;32.10;13.98;;;-2.50;99.90;;;;;;4965454;28;20038;-92
2021/12/22 09:32:41;;;;;;;28.08;12.38;;;-2.50;99.90;;;;;;4970651;28;20124;-94
2021/12/22 09:35:07;;;;;;;24.60;13.73;;;-2.70;99.90;;;;;;4989343;28;20045;-95
2021/12/22 09:37:33;;;;;;;31.15;14.77;;;-2.70;99.90;;;;;;4966522;28;20034;-95
2021/12/22 09:39:59;;;;;;;30.45;13.75;;;-2.60;99.90;;;;;;4994358;28;20033;-94
2021/12/22 09:42:24;;;;;;;27.80;14.43;;;-2.50;99.90;;;;;;4983522;28;20049;-94
2021/12/22 09:44:50;;;;;;;28.60;13.10;;;-1.30;99.90;;;;;;4985581;28;20079;-96
2021/12/22 09:47:26;;;;;;;33.90;14.55;;;-2.70;99.90;;;;;;4983698;28;20037;-96
2021/12/22 09:50:12;;;;;;;28.17;13.73;;;-1.10;99.90;;;;;;4984994;28;20049;-96
2021/12/22 09:52:38;;;;;;;36.55;14.68;;;-2.60;99.90;;;;;;4974604;28;20073;-96
2021/12/22 09:55:07;;;;;;;27.48;13.68;;;-2.60;99.90;;;;;;4982400;28;20045;-96
2021/12/22 09:57:34;;;;;;;31.83;13.73;;;-2.60;99.90;;;;;;4997811;28;20030;-95
2021/12/22 10:00:03;;;;;;;24.25;12.63;;;-2.70;99.90;;;;;;4981674;28;20714;-95
2021/12/22 10:02:30;;;;;;;31.35;14.60;;;-2.70;99.90;;;;;;5003739;28;20081;-94
2021/12/22 10:04:58;;;;;;;26.92;13.57;;;-2.30;99.90;;;;;;4963992;28;20087;-94
2021/12/22 10:07:27;;;;;;;30.55;14.02;;;-2.40;99.90;;;;;;4999567;28;20040;-95
2021/12/22 10:09:55;;;;;;;28.38;13.93;;;-2.40;99.90;;;;;;4998011;28;20415;-94
2021/12/22 10:12:24;;;;;;;31.33;13.45;;;-1.00;99.90;;;;;;4983056;28;20095;-96
2021/12/22 10:14:56;;;;;;;27.60;13.07;;;-2.40;99.90;;;;;;4996520;28;21354;-94
2021/12/22 10:17:40;;;;;;;33.70;14.23;;;-2.50;99.90;;;;;;4994362;28;20038;-94
2021/12/22 10:20:12;;;;;;;31.75;14.07;;;-2.50;99.90;;;;;;5001784;28;20199;-95
2021/12/22 10:22:43;;;;;;;29.17;13.70;;;-2.60;99.90;;;;;;5001588;28;20037;-94
2021/12/22 10:25:17;;;;;;;34.00;15.48;;;-2.50;99.90;;;;;;4992654;28;20057;-93
2021/12/22 10:27:46;;;;;;;34.72;15.88;;;-2.50;99.90;;;;;;5001085;28;20120;-96
2021/12/22 10:30:33;;;;;;;37.40;15.65;;;-1.40;99.90;;;;;;5015491;28;20095;-96
2021/12/22 10:33:17;;;;;;;33.70;15.88;;;-2.30;99.90;;;;;;5000905;28;20519;-96
2021/12/22 10:35:46;;;;;;;34.33;15.98;;;-2.30;99.90;;;;;;4994159;28;20156;-95
2021/12/22 10:38:13;;;;;;;30.67;16.33;;;-2.20;99.90;;;;;;4994758;28;20034;-95
2021/12/22 10:40:45;;;;;;;31.98;14.35;;;-2.20;99.90;;;;;;4981041;28;20493;-95
2021/12/22 10:43:19;;;;;;;35.13;16.05;;;-1.40;99.90;;;;;;4994293;28;20041;-96
2021/12/22 10:45:50;;;;;;;31.33;16.27;;;-2.20;99.90;;;;;;4999538;28;20039;-96
2021/12/22 10:51:08;;;;;;;35.60;15.07;;;-2.10;99.90;;;;;;5013015;28;20053;-94
2021/12/22 10:53:47;;;;;;;32.85;16.42;;;-2.00;99.90;;;;;;4985028;28;20041;-95
2021/12/22 10:56:34;;;;;;;31.45;14.75;;;-1.90;99.90;;;;;;4997035;28;20172;-95
2021/12/22 10:59:10;;;;;;;31.67;16.67;;;-1.90;99.90;;;;;;5002613;28;20097;-96
2021/12/22 11:01:39;;;;;;;33.20;15.20;;;-1.80;99.90;;;;;;4998826;28;20107;-94
2021/12/22 11:04:14;;;;;;;27.10;13.85;;;-1.80;99.90;;;;;;4995633;28;20052;-94
2021/12/22 11:06:41;;;;;;;29.15;13.85;;;-1.80;99.90;;;;;;4996640;28;20446;-94
2021/12/22 11:09:14;;;;;;;31.17;14.95;;;-1.70;99.90;;;;;;4997669;28;20049;-89
2021/12/22 11:11:48;;;;;;;27.52;14.05;;;-1.60;99.90;;;;;;5001200;28;20041;-92
2021/12/22 11:14:22;;;;;;;25.95;13.45;;;-1.60;99.90;;;;;;4998742;28;20050;-92
2021/12/22 11:17:06;;;;;;;25.95;13.70;;;-1.60;99.90;;;;;;4999829;28;20131;-92
2021/12/22 11:19:57;;;;;;;26.65;12.38;;;-1.40;99.90;;;;;;4998983;28;20117;-90
2021/12/22 11:22:37;;;;;;;26.55;12.35;;;-1.30;99.90;;;;;;4999607;28;20504;-90
2021/12/22 11:25:05;;;;;;;27.75;12.85;;;-1.30;99.90;;;;;;5007009;28;20037;-90
2021/12/22 11:27:31;;;;;;;28.60;14.13;;;-1.20;99.90;;;;;;4984650;28;20123;-94
2021/12/22 11:29:58;;;;;;;25.33;12.30;;;0.00;99.90;;;;;;4996387;28;20037;-94
2021/12/22 11:32:30;;;;;;;25.30;13.35;;;-1.10;99.90;;;;;;5002262;28;20041;-96
2021/12/22 11:35:02;;;;;;;24.45;13.00;;;-1.10;99.90;;;;;;5000905;28;20099;-96
2021/12/22 11:37:28;;;;;;;27.63;12.33;;;-1.10;99.90;;;;;;4999928;28;20128;-95
2021/12/22 11:39:57;;;;;;;26.25;12.18;;;0.60;99.90;;;;;;4985742;28;20276;-94
2021/12/22 11:42:27;;;;;;;24.48;11.38;;;-0.40;99.90;;;;;;4999054;28;20044;-92
2021/12/22 11:44:57;;;;;;;20.10;10.93;;;-1.00;99.90;;;;;;5007470;28;20037;-91
2021/12/22 11:47:23;;;;;;;21.92;12.02;;;-0.90;99.90;;;;;;5032311;28;20417;-94
2021/12/22 11:49:58;;;;;;;24.38;11.80;;;-0.90;99.90;;;;;;4999328;28;20120;-93
2021/12/22 11:52:43;;;;;;;26.52;11.93;;;-0.80;99.90;;;;;;5019368;28;20128;-94
2021/12/22 11:55:13;;;;;;;20.60;11.30;;;-0.90;99.90;;;;;;5019314;28;20550;-95
2021/12/22 11:57:40;;;;;;;28.65;12.70;;;-1.00;99.90;;;;;;5015921;28;20104;-94
2021/12/22 12:00:27;;;;;;;21.25;10.93;;;-0.90;99.90;;;;;;4991600;28;20041;-94
2021/12/22 12:02:55;;;;;;;24.15;10.98;;;-1.90;99.90;;;;;;5018453;28;20040;-94
2021/12/22 12:05:24;;;;;;;19.13;10.85;;;-1.00;99.90;;;;;;4993576;28;20041;-96
2021/12/22 12:07:54;;;;;;;26.38;11.50;;;-1.00;99.90;;;;;;5007952;28;20077;-95
2021/12/22 12:10:40;;;;;;;20.38;10.55;;;-0.90;99.90;;;;;;5038058;28;20064;-95
2021/12/22 12:13:22;;;;;;;20.50;10.07;;;-0.90;99.90;;;;;;5022010;28;20052;-94
2021/12/22 12:21:39;;;;;;;19.30;10.63;;;-0.90;99.90;;;;;;5021615;28;20067;-95
2021/12/22 12:21:55;;;;;;;21.67;9.90;;;-0.90;99.90;;;;;;5038345;28;20055;-93
2021/12/22 12:24:30;;;;;;;22.40;11.65;;;-0.80;99.90;;;;;;5025683;28;20044;-92
2021/12/22 12:26:57;;;;;;;20.55;10.82;;;-0.90;99.90;;;;;;5018866;28;20037;-93
2021/12/22 12:29:56;;;;;;;21.02;11.50;;;-0.90;99.90;;;;;;5003843;28;20123;-94
2021/12/22 12:32:40;;;;;;;20.52;12.07;;;-0.90;99.90;;;;;;4959266;28;20146;-96
2021/12/22 12:35:26;;;;;;;21.05;10.50;;;-0.90;99.90;;;;;;5002802;28;20084;-95
2021/12/22 12:38:16;;;;;;;21.63;11.55;;;-0.90;99.90;;;;;;5013696;28;20048;-95
2021/12/22 12:40:57;;;;;;;20.63;11.63;;;-0.80;99.90;;;;;;5019729;28;20217;-94
2021/12/22 12:43:52;;;;;;;23.05;12.30;;;-0.40;99.90;;;;;;5017497;28;20157;-95
2021/12/22 12:46:24;;;;;;;21.17;10.88;;;-0.50;99.90;;;;;;5025873;28;20091;-96
2021/12/22 12:49:16;;;;;;;22.48;10.77;;;0.90;99.90;;;;;;5021352;28;20445;-96
2021/12/22 12:51:42;;;;;;;20.00;11.23;;;-0.20;99.90;;;;;;5021904;28;20049;-96
2021/12/22 12:54:17;;;;;;;20.15;10.45;;;0.80;99.90;;;;;;5033887;28;20120;-96
2021/12/22 12:57:01;;;;;;;17.73;10.15;;;-0.40;99.90;;;;;;5012371;28;20094;-96
2021/12/22 12:59:42;;;;;;;19.92;11.32;;;-0.40;99.90;;;;;;5022742;28;20037;-96